PWSweather.com
Personal Weather Stations
Station Observations
KVAPURDY1
Purdy, Purdy, VA 23847

PurdyPurdy, VA 23847

Lat: 36.79, Lon: -77.57

Elevation: 200

Station Type: vantage vue 6351

Latest ConditionsUpdated 2:16:36 AM EST Wednesday, Feb 21, 2018
Currently Today's Max Today's Min Today's Average
Temperature 62.4°F16.9°C 62.4°F16.9°C 60.7°F15.9°C 61.6°F16.4°C
Dew Point 62.0°F16.7°C 62.0°F16.7°C 60.0°F15.6°C 61.5°F16.4°C
Winds Calm Calm 2.0 mph S3.2 kmh S - 0.7 mph 1.1 kmh
Wind Gusts 4.0 mph6.4 kmh 5.0 mph8.0 kmh - -
Humidity 99% 99% 99% 99%
Pressure 30.41 in1029.8 mb 30.41 in1029.8 mb 30.40 in1029.5 mb -
Precipitation - 0.01 in0.3 mm - -
Hour Temp Dew Point Humidity Winds Wind Gusts Pressure Precip Precip Rate Daily Precip Total
02:16 AM 62.4°F16.9°C 62.0°F16.7°C 99% Calm Calm 4.0 mph6.4 kmh 30.41 in1029.8 mb 0.00 in0.0 mm 0.00 in0.0 mm 0.01 in0.3 mm
02:11 AM 62.2°F16.8°C 62.0°F16.7°C 99% 2.0 mph SSE3.2 kmh SSE 4.0 mph6.4 kmh 30.40 in1029.5 mb 0.00 in0.0 mm 0.00 in0.0 mm 0.01 in0.3 mm
02:06 AM 62.1°F16.7°C 62.0°F16.7°C 99% 2.0 mph SW3.2 kmh SW 4.0 mph6.4 kmh 30.40 in1029.5 mb 0.00 in0.0 mm 0.00 in0.0 mm 0.01 in0.3 mm
02:01 AM 62.1°F16.7°C 62.0°F16.7°C 99% 1.0 mph SSE1.6 kmh SSE 4.0 mph6.4 kmh 30.40 in1029.5 mb 0.00 in0.0 mm 0.00 in0.0 mm 0.01 in0.3 mm
01:56 AM 62.0°F16.7°C 62.0°F16.7°C 99% Calm Calm 2.0 mph3.2 kmh 30.41 in1029.8 mb 0.00 in0.0 mm 0.00 in0.0 mm 0.01 in0.3 mm
01:51 AM 62.1°F16.7°C 62.0°F16.7°C 99% Calm Calm 3.0 mph4.8 kmh 30.41 in1029.8 mb 0.00 in0.0 mm 0.00 in0.0 mm 0.01 in0.3 mm
01:46 AM 62.0°F16.7°C 62.0°F16.7°C 99% 2.0 mph S3.2 kmh S 3.0 mph4.8 kmh 30.40 in1029.5 mb 0.00 in0.0 mm 0.00 in0.0 mm 0.01 in0.3 mm
01:41 AM 62.0°F16.7°C 62.0°F16.7°C 99% 2.0 mph SSE3.2 kmh SSE 3.0 mph4.8 kmh 30.41 in1029.8 mb 0.00 in0.0 mm 0.00 in0.0 mm 0.01 in0.3 mm
01:36 AM 61.9°F16.6°C 62.0°F16.7°C 99% Calm Calm 2.0 mph3.2 kmh 30.41 in1029.8 mb 0.00 in0.0 mm 0.00 in0.0 mm 0.01 in0.3 mm
01:31 AM 61.9°F16.6°C 62.0°F16.7°C 99% 1.0 mph SSE1.6 kmh SSE 5.0 mph8.0 kmh 30.41 in1029.8 mb 0.00 in0.0 mm 0.00 in0.0 mm 0.01 in0.3 mm
01:26 AM 62.0°F16.7°C 62.0°F16.7°C 99% Calm Calm 5.0 mph8.0 kmh 30.41 in1029.8 mb 0.00 in0.0 mm 0.00 in0.0 mm 0.01 in0.3 mm
01:21 AM 61.9°F16.6°C 62.0°F16.7°C 99% Calm Calm 5.0 mph8.0 kmh 30.41 in1029.8 mb 0.01 in0.3 mm 0.00 in0.0 mm 0.01 in0.3 mm
01:16 AM 62.0°F16.7°C 62.0°F16.7°C 99% Calm Calm 5.0 mph8.0 kmh 30.41 in1029.8 mb 0.01 in0.3 mm 0.00 in0.0 mm 0.01 in0.3 mm
01:11 AM 61.8°F16.6°C 62.0°F16.7°C 99% 1.0 mph SSE1.6 kmh SSE 3.0 mph4.8 kmh 30.41 in1029.8 mb 0.01 in0.3 mm 0.00 in0.0 mm 0.01 in0.3 mm
01:06 AM 61.9°F16.6°C 62.0°F16.7°C 99% 1.0 mph SSW1.6 kmh SSW 4.0 mph6.4 kmh 30.41 in1029.8 mb 0.01 in0.3 mm 0.00 in0.0 mm 0.01 in0.3 mm
01:01 AM 61.8°F16.6°C 62.0°F16.7°C 99% 1.0 mph SE1.6 kmh SE 4.0 mph6.4 kmh 30.41 in1029.8 mb 0.01 in0.3 mm 0.00 in0.0 mm 0.01 in0.3 mm
12:56 AM 61.7°F16.5°C 61.0°F16.1°C 99% 2.0 mph E3.2 kmh E 3.0 mph4.8 kmh 30.41 in1029.8 mb 0.01 in0.3 mm 0.00 in0.0 mm 0.01 in0.3 mm
12:51 AM 61.4°F16.3°C 61.0°F16.1°C 99% Calm Calm 2.0 mph3.2 kmh 30.41 in1029.8 mb 0.01 in0.3 mm 0.00 in0.0 mm 0.01 in0.3 mm
12:47 AM 61.4°F16.3°C 61.0°F16.1°C 99% Calm Calm 3.0 mph4.8 kmh 30.41 in1029.8 mb 0.01 in0.3 mm 0.00 in0.0 mm 0.01 in0.3 mm
12:41 AM 61.3°F16.3°C 61.0°F16.1°C 99% 2.0 mph S3.2 kmh S 3.0 mph4.8 kmh 30.41 in1029.8 mb 0.01 in0.3 mm 0.00 in0.0 mm 0.01 in0.3 mm
12:36 AM 61.3°F16.3°C 61.0°F16.1°C 99% Calm Calm 3.0 mph4.8 kmh 30.41 in1029.8 mb 0.01 in0.3 mm 0.00 in0.0 mm 0.01 in0.3 mm
12:31 AM 61.1°F16.2°C 61.0°F16.1°C 99% Calm Calm 2.0 mph3.2 kmh 30.41 in1029.8 mb 0.01 in0.3 mm 0.12 in3.0 mm 0.01 in0.3 mm
12:26 AM 61.0°F16.1°C 61.0°F16.1°C 99% Calm Calm 2.0 mph3.2 kmh 30.41 in1029.8 mb 0.00 in0.0 mm 0.00 in0.0 mm 0.01 in0.3 mm
12:21 AM 60.9°F16.1°C 61.0°F16.1°C 99% 1.0 mph SE1.6 kmh SE 2.0 mph3.2 kmh 30.41 in1029.8 mb 0.00 in0.0 mm 0.00 in0.0 mm 0.00 in0.0 mm
12:16 AM 60.8°F16.0°C 61.0°F16.1°C 99% Calm Calm 3.0 mph4.8 kmh 30.41 in1029.8 mb 0.00 in0.0 mm 0.00 in0.0 mm 0.00 in0.0 mm
12:11 AM 60.8°F16.0°C 61.0°F16.1°C 99% 1.0 mph SSE1.6 kmh SSE 3.0 mph4.8 kmh 30.41 in1029.8 mb 0.00 in0.0 mm 0.00 in0.0 mm 0.00 in0.0 mm
12:06 AM 60.7°F15.9°C 60.0°F15.6°C 99% 1.0 mph SSE1.6 kmh SSE 2.0 mph3.2 kmh 30.41 in1029.8 mb 0.00 in0.0 mm 0.00 in0.0 mm 0.00 in0.0 mm
12:01 AM 60.7°F15.9°C 60.0°F15.6°C 99% Calm Calm 2.0 mph3.2 kmh 30.41 in1029.8 mb 0.00 in0.0 mm 0.00 in0.0 mm 0.00 in0.0 mm